createdAt,value
2023-05-18T00:00:10.977Z,100152.53
2023-05-18T00:02:41.145Z,100154.19
2023-05-18T00:05:10.166Z,100151.72
2023-05-18T00:07:39.333Z,100150.91
2023-05-18T00:10:09.435Z,100151.81
2023-05-18T00:12:37.504Z,100146.69
2023-05-18T00:15:06.922Z,100148.41
2023-05-18T00:17:35.066Z,100147.59
2023-05-18T00:20:06.354Z,100145.16
2023-05-18T00:22:34.365Z,100145.16
2023-05-18T00:25:02.481Z,100137.56
2023-05-18T00:27:31.365Z,100146.94
2023-05-18T00:29:59.367Z,100146.16
2023-05-18T00:32:27.568Z,100144.47
2023-05-18T00:34:55.687Z,100145.41
2023-05-18T00:37:25.606Z,100135.25
2023-05-18T00:39:53.782Z,100139.56
2023-05-18T00:42:21.998Z,100131.97
2023-05-18T00:44:50.038Z,100130.31
2023-05-18T00:47:20.893Z,100132.97
2023-05-18T00:49:49.017Z,100132.97
2023-05-18T00:52:18.726Z,100134.72
2023-05-18T00:54:50.425Z,100130.50
2023-05-18T00:57:20.116Z,100134.78
2023-05-18T00:59:48.616Z,100126.38
2023-05-18T01:02:16.998Z,100131.50
2023-05-18T01:04:45.157Z,100138.38
2023-05-18T01:07:16.554Z,100139.28
2023-05-18T01:09:44.682Z,100138.44
2023-05-18T01:12:22.819Z,100141.94
2023-05-18T01:14:58.796Z,100132.69
2023-05-18T01:17:37.602Z,100136.97
2023-05-18T01:20:19.138Z,100138.81
2023-05-18T01:23:20.462Z,100135.50
2023-05-18T01:26:05.329Z,100136.44
2023-05-18T01:28:34.683Z,100138.31
2023-05-18T01:31:03.667Z,100134.13
2023-05-18T01:33:33.909Z,100133.31
2023-05-18T01:36:02.967Z,100131.66
2023-05-18T01:38:31.495Z,100136.03
2023-05-18T01:41:12.046Z,100126.72
2023-05-18T01:43:48.708Z,100131.09
2023-05-18T01:46:26.195Z,100132.88
2023-05-18T01:49:01.336Z,100129.56
2023-05-18T01:51:34.906Z,100133.03
2023-05-18T01:54:07.780Z,100128.09
2023-05-18T01:56:41.316Z,100127.38
2023-05-18T01:59:09.746Z,100127.47
2023-05-18T02:01:39.374Z,100119.03
2023-05-18T02:04:10.232Z,100131.94
2023-05-18T02:06:38.706Z,100121.88
2023-05-18T02:09:09.020Z,100132.13
2023-05-18T02:11:37.137Z,100124.44
2023-05-18T02:14:06.773Z,100120.31
2023-05-18T02:16:34.898Z,100120.41
2023-05-18T02:19:03.266Z,100121.31
2023-05-18T02:21:34.678Z,100120.56
2023-05-18T02:24:05.083Z,100120.66
2023-05-18T02:26:33.151Z,100122.41
2023-05-18T02:29:01.289Z,100125.84
2023-05-18T02:31:32.494Z,100115.72
2023-05-18T02:34:02.640Z,100120.91
2023-05-18T02:36:37.137Z,100120.16
2023-05-18T02:39:06.490Z,100120.25
2023-05-18T02:41:34.891Z,100122.09
2023-05-18T02:44:03.837Z,100114.47
2023-05-18T02:46:33.969Z,100123.09
2023-05-18T02:49:02.798Z,100121.44
2023-05-18T02:51:31.330Z,100110.44
2023-05-18T02:53:59.538Z,100117.22
2023-05-18T02:56:29.072Z,100116.50
2023-05-18T02:59:11.416Z,100113.19
2023-05-18T03:01:43.986Z,100117.50
2023-05-18T03:04:13.982Z,100120.13
2023-05-18T03:06:52.726Z,100109.91
2023-05-18T03:09:21.884Z,100117.63
2023-05-18T03:11:51.643Z,100119.38
2023-05-18T03:14:19.705Z,100123.78
2023-05-18T03:16:53.969Z,100127.22
2023-05-18T03:19:24.578Z,100122.22
2023-05-18T03:21:52.694Z,100122.22
2023-05-18T03:24:20.917Z,100123.03
2023-05-18T03:26:54.039Z,100123.91
2023-05-18T03:29:22.951Z,100123.19
2023-05-18T03:31:53.241Z,100129.22
2023-05-18T03:34:21.306Z,100121.53
2023-05-18T03:36:51.690Z,100127.72
2023-05-18T03:39:19.739Z,100131.94
2023-05-18T03:41:48.126Z,100126.97
2023-05-18T03:44:16.254Z,100134.66
2023-05-18T03:46:44.511Z,100140.69
2023-05-18T03:49:14.257Z,100136.41
2023-05-18T03:51:44.132Z,100127.91
2023-05-18T03:54:12.399Z,100137.28
2023-05-18T03:56:40.979Z,100139.94
2023-05-18T03:59:09.234Z,100138.28
2023-05-18T04:01:38.107Z,100138.28
2023-05-18T04:04:07.277Z,100144.34
2023-05-18T04:06:37.400Z,100141.88
2023-05-18T04:09:05.694Z,100142.69
2023-05-18T04:11:33.874Z,100137.56
2023-05-18T04:14:02.832Z,100148.69
2023-05-18T04:16:31.144Z,100145.22
2023-05-18T04:19:00.455Z,100149.53
2023-05-18T04:21:33.767Z,100150.34
2023-05-18T04:24:05.143Z,100147.78
2023-05-18T04:26:36.336Z,100146.97
2023-05-18T04:29:04.524Z,100146.91
2023-05-18T04:31:33.703Z,100155.38
2023-05-18T04:34:02.127Z,100153.63
2023-05-18T04:36:31.039Z,100161.16
2023-05-18T04:38:59.765Z,100150.00
2023-05-18T04:41:30.428Z,100159.31
2023-05-18T04:44:00.836Z,100160.09
2023-05-18T04:46:29.561Z,100150.56
2023-05-18T04:48:58.804Z,100163.28
2023-05-18T04:51:26.835Z,100158.09
2023-05-18T04:53:55.731Z,100151.16
2023-05-18T04:56:23.842Z,100159.59
2023-05-18T04:58:53.204Z,100160.31
2023-05-18T05:01:21.461Z,100166.19
2023-05-18T05:03:50.078Z,100163.53
2023-05-18T05:06:18.350Z,100164.25
2023-05-18T05:08:47.882Z,100159.91
2023-05-18T05:11:15.996Z,100163.25
2023-05-18T05:13:44.058Z,100162.38
2023-05-18T05:16:13.422Z,100164.84
2023-05-18T05:18:41.495Z,100169.13
2023-05-18T05:21:10.563Z,100168.19
2023-05-18T05:23:38.663Z,100163.84
2023-05-18T05:26:07.002Z,100160.38
2023-05-18T05:28:35.559Z,100161.94
2023-05-18T05:31:03.645Z,100157.47
2023-05-18T05:33:33.689Z,100154.00
2023-05-18T05:36:01.950Z,100164.16
2023-05-18T05:38:29.987Z,100155.56
2023-05-18T05:40:59.193Z,100155.56
2023-05-18T05:43:27.494Z,100158.84
2023-05-18T05:45:55.798Z,100162.25
2023-05-18T05:48:23.986Z,100171.59
2023-05-18T05:50:53.334Z,100163.81
2023-05-18T05:53:23.371Z,100163.72
2023-05-18T05:55:51.450Z,100159.34
2023-05-18T05:58:20.680Z,100164.31
2023-05-18T06:00:52.987Z,100165.94
2023-05-18T06:03:22.002Z,100169.25
2023-05-18T06:05:50.919Z,100162.28
2023-05-18T06:08:24.156Z,100157.09
2023-05-18T06:10:53.670Z,100165.41
2023-05-18T06:13:21.839Z,100152.53
2023-05-18T06:15:52.642Z,100164.28
2023-05-18T06:18:21.449Z,100161.66
2023-05-18T06:20:51.198Z,100161.47
2023-05-18T06:23:23.589Z,100154.50
2023-05-18T06:26:08.088Z,100162.94
2023-05-18T06:28:54.234Z,100161.09
2023-05-18T06:31:30.581Z,100167.78
2023-05-18T06:34:21.908Z,100157.44
2023-05-18T06:36:50.062Z,100164.13
2023-05-18T06:39:19.479Z,100167.53
2023-05-18T06:41:47.743Z,100170.00
2023-05-18T06:44:23.908Z,100168.16
2023-05-18T06:47:11.550Z,100173.13
2023-05-18T06:49:40.011Z,100172.09
2023-05-18T06:52:09.829Z,100169.38
2023-05-18T06:54:39.901Z,100174.22
2023-05-18T06:57:08.339Z,100180.00
2023-05-18T06:59:36.418Z,100173.88
2023-05-18T07:02:04.989Z,100170.22
2023-05-18T07:04:36.831Z,100172.50
2023-05-18T07:07:05.143Z,100169.84
2023-05-18T07:09:33.230Z,100170.50
2023-05-18T07:12:02.654Z,100169.41
2023-05-18T07:14:30.766Z,100172.63
2023-05-18T07:16:58.790Z,100169.03
2023-05-18T07:19:27.046Z,100173.78
2023-05-18T07:21:56.759Z,100168.56
2023-05-18T07:24:24.756Z,100173.44
2023-05-18T07:26:52.745Z,100163.00
2023-05-18T07:29:22.094Z,100155.13
2023-05-18T07:31:50.234Z,100166.84
2023-05-18T07:34:18.367Z,100162.44
2023-05-18T07:36:46.454Z,100162.25
2023-05-18T07:39:19.685Z,100156.94
2023-05-18T07:41:48.433Z,100160.25
2023-05-18T07:44:16.826Z,100163.41
2023-05-18T07:46:46.209Z,100162.41
2023-05-18T07:49:14.251Z,100166.53
2023-05-18T07:51:42.479Z,100161.25
2023-05-18T07:54:10.511Z,100158.41
2023-05-18T07:56:39.227Z,100153.94
2023-05-18T07:59:07.696Z,100151.06
2023-05-18T08:01:37.729Z,100162.78
2023-05-18T08:04:07.623Z,100156.53
2023-05-18T08:06:35.948Z,100157.09
2023-05-18T08:09:04.366Z,100160.19
2023-05-18T08:11:32.357Z,100159.16
2023-05-18T08:14:00.422Z,100156.31
2023-05-18T08:16:28.482Z,100153.53
2023-05-18T08:18:56.604Z,100158.41
2023-05-18T08:21:26.160Z,100158.09
2023-05-18T08:23:54.218Z,100152.59
2023-05-18T08:26:22.978Z,100147.06
2023-05-18T08:28:51.137Z,100140.59
2023-05-18T08:31:19.213Z,100140.22
2023-05-18T08:33:47.257Z,100130.47
2023-05-18T08:36:16.764Z,100128.94
2023-05-18T08:38:46.091Z,100129.00
2023-05-18T08:41:22.532Z,100126.13
2023-05-18T08:44:00.405Z,100130.03
2023-05-18T08:46:34.245Z,100127.75
2023-05-18T08:49:04.291Z,100122.78
2023-05-18T08:51:37.030Z,100118.22
2023-05-18T08:54:07.221Z,100118.72
2023-05-18T08:56:35.649Z,100114.03
2023-05-18T08:59:07.678Z,100113.59
2023-05-18T09:01:36.975Z,100114.22
2023-05-18T09:04:06.091Z,100108.97
2023-05-18T09:06:35.714Z,100108.97
2023-05-18T09:09:05.328Z,100119.53
2023-05-18T09:11:36.333Z,100112.22
2023-05-18T09:14:04.474Z,100110.06
2023-05-18T09:16:33.200Z,100112.88
2023-05-18T09:19:01.637Z,100110.03
2023-05-18T09:21:32.298Z,100116.16
2023-05-18T09:24:01.293Z,100107.03
2023-05-18T09:26:29.489Z,100107.75
2023-05-18T09:28:59.443Z,100104.22
2023-05-18T09:31:27.654Z,100105.78
2023-05-18T09:33:55.946Z,100107.19
2023-05-18T09:36:29.062Z,100105.22
2023-05-18T09:38:58.408Z,100110.63
2023-05-18T09:41:28.441Z,100103.69
2023-05-18T09:43:57.800Z,100100.88
2023-05-18T09:46:26.005Z,100105.78
2023-05-18T09:48:56.754Z,100097.00
2023-05-18T09:51:25.546Z,100098.75
2023-05-18T09:53:57.239Z,100091.50
2023-05-18T09:56:26.696Z,100093.44
2023-05-18T09:58:55.140Z,100086.50
2023-05-18T10:01:24.649Z,100082.00
2023-05-18T10:03:53.345Z,100097.22
2023-05-18T10:06:27.710Z,100081.34
2023-05-18T10:08:58.308Z,100085.28
2023-05-18T10:11:27.435Z,100078.56
2023-05-18T10:13:56.742Z,100088.13
2023-05-18T10:16:26.929Z,100088.69
2023-05-18T10:18:56.765Z,100088.34
2023-05-18T10:21:28.347Z,100076.56
2023-05-18T10:23:56.694Z,100075.66
2023-05-18T10:26:28.956Z,100079.50
2023-05-18T10:29:00.482Z,100077.66
2023-05-18T10:31:32.277Z,100075.22
2023-05-18T10:34:01.310Z,100082.84
2023-05-18T10:36:32.643Z,100086.50
2023-05-18T10:39:01.986Z,100080.38
2023-05-18T10:41:32.453Z,100090.56
2023-05-18T10:44:04.030Z,100086.28
2023-05-18T10:46:34.923Z,100077.94
2023-05-18T10:49:07.999Z,100077.28
2023-05-18T10:51:36.897Z,100080.34
2023-05-18T10:54:13.959Z,100087.03
2023-05-18T10:56:45.536Z,100074.09
2023-05-18T10:59:15.920Z,100076.44
2023-05-18T11:01:46.716Z,100071.50
2023-05-18T11:04:15.071Z,100064.06
2023-05-18T11:06:43.312Z,100060.69
2023-05-18T11:09:24.394Z,100063.31
2023-05-18T11:11:54.003Z,100057.09
2023-05-18T11:14:29.572Z,100063.00
2023-05-18T11:17:21.214Z,100060.56
2023-05-18T11:20:15.902Z,100057.13
2023-05-18T11:22:48.246Z,100051.75
2023-05-18T11:25:39.769Z,100048.38
2023-05-18T11:28:10.612Z,100046.13
2023-05-18T11:30:51.391Z,100053.53
2023-05-18T11:33:30.234Z,100047.31
2023-05-18T11:36:08.158Z,100058.06
2023-05-18T11:38:53.453Z,100052.00
2023-05-18T11:41:34.097Z,100053.28
2023-05-18T11:44:18.606Z,100047.53
2023-05-18T11:46:55.227Z,100041.09
2023-05-18T11:49:27.750Z,100037.09
2023-05-18T11:52:08.133Z,100029.66
2023-05-18T11:54:41.885Z,100033.41
2023-05-18T11:57:11.138Z,100030.25
2023-05-18T11:59:42.168Z,100031.31
2023-05-18T12:02:12.379Z,100037.38
2023-05-18T12:04:48.595Z,100037.38
2023-05-18T12:07:17.574Z,100034.94
2023-05-18T12:09:46.974Z,100031.50
2023-05-18T12:12:19.914Z,100032.47
2023-05-18T12:14:55.347Z,100030.81
2023-05-18T12:17:24.333Z,100037.81
2023-05-18T12:19:53.828Z,100031.06
2023-05-18T12:22:21.886Z,100024.25
2023-05-18T12:24:53.474Z,100020.03
2023-05-18T12:27:22.916Z,100015.81
2023-05-18T12:29:51.768Z,100013.34
2023-05-18T12:32:20.775Z,100028.00
2023-05-18T12:34:48.988Z,100022.00
2023-05-18T12:37:18.382Z,100021.19
2023-05-18T12:39:46.398Z,100013.59
2023-05-18T12:42:16.010Z,100017.94
2023-05-18T12:44:45.820Z,100021.44
2023-05-18T12:47:14.981Z,100009.50
2023-05-18T12:49:49.017Z,100017.22
2023-05-18T12:52:18.437Z,100007.03
2023-05-18T12:54:59.933Z,100006.22
2023-05-18T12:57:30.896Z,100012.28
2023-05-18T12:59:59.642Z,100010.66
2023-05-18T13:02:33.493Z,100014.25
2023-05-18T13:05:04.546Z,100010.88
2023-05-18T13:07:36.599Z,99996.38
2023-05-18T13:10:10.454Z,100002.44
2023-05-18T13:12:45.142Z,100005.84
2023-05-18T13:15:15.896Z,99995.56
2023-05-18T13:17:57.805Z,99999.88
2023-05-18T13:20:35.932Z,99992.25
2023-05-18T13:23:08.776Z,99988.75
2023-05-18T13:25:37.162Z,99978.47
2023-05-18T13:28:06.261Z,99981.84
2023-05-18T13:30:34.710Z,99975.78
2023-05-18T13:33:02.796Z,99975.78
2023-05-18T13:35:31.301Z,99974.84
2023-05-18T13:37:59.616Z,99970.63
2023-05-18T13:40:29.141Z,99974.00
2023-05-18T13:42:57.243Z,99973.19
2023-05-18T13:45:25.453Z,99953.41
2023-05-18T13:47:53.974Z,99969.69
2023-05-18T13:50:22.837Z,99963.72
2023-05-18T13:52:50.999Z,99967.13
2023-05-18T13:55:19.357Z,99961.97
2023-05-18T13:57:48.766Z,99954.38
2023-05-18T14:00:17.925Z,99954.38
2023-05-18T14:02:46.427Z,99956.09
2023-05-18T14:05:16.213Z,99949.22
2023-05-18T14:07:44.868Z,99948.38
2023-05-18T14:10:14.324Z,99932.94
2023-05-18T14:12:43.279Z,99939.00
2023-05-18T14:15:14.710Z,99936.44
2023-05-18T14:17:43.618Z,99933.97
2023-05-18T14:20:13.172Z,99933.19
2023-05-18T14:22:41.686Z,99937.50
2023-05-18T14:25:10.574Z,99925.56
2023-05-18T14:27:38.654Z,99923.25
2023-05-18T14:30:08.526Z,99919.13
2023-05-18T14:32:37.987Z,99929.44
2023-05-18T14:35:07.289Z,99920.88
2023-05-18T14:37:35.368Z,99925.22
2023-05-18T14:40:05.798Z,99932.00
2023-05-18T14:42:33.918Z,99927.66
2023-05-18T14:45:01.946Z,99922.53
2023-05-18T14:47:30.035Z,99915.72
2023-05-18T14:49:59.464Z,99915.59
2023-05-18T14:52:27.496Z,99911.41
2023-05-18T14:54:55.497Z,99912.09
2023-05-18T14:57:25.379Z,99906.03
2023-05-18T14:59:54.644Z,99913.75
2023-05-18T15:02:22.821Z,99917.13
2023-05-18T15:04:50.961Z,99915.41
2023-05-18T15:07:20.356Z,99911.19
2023-05-18T15:09:48.424Z,99917.25
2023-05-18T15:12:17.051Z,99911.41
2023-05-18T15:14:45.102Z,99903.81
2023-05-18T15:17:14.908Z,99909.78
2023-05-18T15:19:42.953Z,99909.78
2023-05-18T15:22:11.152Z,99901.13
2023-05-18T15:24:40.665Z,99901.13
2023-05-18T15:27:09.063Z,99901.13
2023-05-18T15:29:37.133Z,99896.78
2023-05-18T15:32:06.273Z,99892.44
2023-05-18T15:34:35.119Z,99897.59
2023-05-18T15:37:03.322Z,99887.28
2023-05-18T15:39:32.149Z,99889.78
2023-05-18T15:42:01.477Z,99886.25
2023-05-18T15:44:29.884Z,99891.53
2023-05-18T15:46:58.178Z,99894.09
2023-05-18T15:49:26.155Z,99892.44
2023-05-18T15:51:54.273Z,99896.78
2023-05-18T15:54:22.302Z,99891.75
2023-05-18T15:56:50.986Z,99896.09
2023-05-18T15:59:20.386Z,99886.72
2023-05-18T16:01:48.556Z,99879.94
2023-05-18T16:04:16.735Z,99879.13
2023-05-18T16:06:44.996Z,99883.44
2023-05-18T16:09:13.055Z,99889.41
2023-05-18T16:11:41.122Z,99886.13
2023-05-18T16:14:09.137Z,99890.47
2023-05-18T16:16:38.573Z,99891.41
2023-05-18T16:19:07.374Z,99889.63
2023-05-18T16:21:35.665Z,99888.94
2023-05-18T16:24:03.750Z,99891.50
2023-05-18T16:26:33.528Z,99887.16
2023-05-18T16:29:03.169Z,99886.38
2023-05-18T16:31:31.313Z,99888.00
2023-05-18T16:34:00.759Z,99885.53
2023-05-18T16:36:28.881Z,99889.06
2023-05-18T16:38:56.912Z,99883.91
2023-05-18T16:41:24.970Z,99895.00
2023-05-18T16:43:53.031Z,99895.94
2023-05-18T16:46:21.127Z,99901.94
2023-05-18T16:48:49.164Z,99897.59
2023-05-18T16:51:18.587Z,99895.00
2023-05-18T16:53:46.700Z,99892.56
2023-05-18T16:56:14.754Z,99890.78
2023-05-18T16:58:42.884Z,99908.81
2023-05-18T17:01:23.518Z,99903.66
2023-05-18T17:03:56.123Z,99904.63
2023-05-18T17:06:26.163Z,99905.41
2023-05-18T17:08:57.972Z,99906.34
2023-05-18T17:11:27.640Z,99900.38
2023-05-18T17:13:57.359Z,99906.47
2023-05-18T17:16:26.632Z,99909.03
2023-05-18T17:18:55.925Z,99909.84
2023-05-18T17:21:28.090Z,99902.03
2023-05-18T17:23:56.273Z,99907.19
2023-05-18T17:26:25.311Z,99906.13
2023-05-18T17:28:53.554Z,99904.50
2023-05-18T17:31:21.584Z,99912.22
2023-05-18T17:33:49.655Z,99902.72
2023-05-18T17:36:18.112Z,99908.00
2023-05-18T17:38:47.736Z,99910.69
2023-05-18T17:41:15.802Z,99910.81
2023-05-18T17:43:43.879Z,99909.97
2023-05-18T17:46:11.906Z,99909.28
2023-05-18T17:48:40.036Z,99916.28
2023-05-18T17:51:08.141Z,99914.63
2023-05-18T17:53:41.741Z,99913.94
2023-05-18T17:56:12.143Z,99908.06
2023-05-18T17:58:40.333Z,99907.38
2023-05-18T18:01:08.877Z,99908.28
2023-05-18T18:03:37.734Z,99916.94
2023-05-18T18:06:06.730Z,99912.88
2023-05-18T18:08:35.103Z,99917.28
2023-05-18T18:11:03.423Z,99917.41
2023-05-18T18:13:32.809Z,99915.75
2023-05-18T18:16:01.026Z,99915.88
2023-05-18T18:18:29.321Z,99915.16
2023-05-18T18:20:57.345Z,99917.84
2023-05-18T18:23:25.559Z,99913.66
2023-05-18T18:25:53.595Z,99922.28
2023-05-18T18:28:21.778Z,99918.97
2023-05-18T18:30:51.257Z,99919.91
2023-05-18T18:33:19.774Z,99924.34
2023-05-18T18:35:47.981Z,99926.22
2023-05-18T18:38:16.119Z,99923.72
2023-05-18T18:40:44.221Z,99926.41
2023-05-18T18:43:12.348Z,99925.72
2023-05-18T18:45:40.549Z,99932.72
2023-05-18T18:48:09.979Z,99926.88
2023-05-18T18:50:38.149Z,99932.13
2023-05-18T18:53:06.326Z,99927.06
2023-05-18T18:55:34.618Z,99931.53
2023-05-18T18:58:02.755Z,99923.09
2023-05-18T19:00:31.517Z,99933.47
2023-05-18T19:02:59.735Z,99929.50
2023-05-18T19:05:30.899Z,99938.13
2023-05-18T19:07:59.325Z,99935.66
2023-05-18T19:10:27.422Z,99938.59
2023-05-18T19:12:56.916Z,99945.56
2023-05-18T19:15:24.961Z,99939.84
2023-05-18T19:17:53.804Z,99946.00
2023-05-18T19:20:23.443Z,99948.69
2023-05-18T19:22:54.027Z,99949.72
2023-05-18T19:25:24.177Z,99966.19
2023-05-18T19:27:52.704Z,99954.38
2023-05-18T19:30:21.759Z,99957.97
2023-05-18T19:32:51.421Z,99963.31
2023-05-18T19:35:20.231Z,99967.75
2023-05-18T19:37:48.301Z,99975.66
2023-05-18T19:40:17.953Z,99976.69
2023-05-18T19:42:46.012Z,99970.97
2023-05-18T19:45:14.087Z,99970.25
2023-05-18T19:47:42.089Z,99981.66
2023-05-18T19:50:10.465Z,99983.50
2023-05-18T19:52:38.502Z,99980.34
2023-05-18T19:55:08.019Z,99980.44
2023-05-18T19:57:37.537Z,99985.78
2023-05-18T20:00:10.876Z,99985.97
2023-05-18T20:02:41.585Z,99982.72
2023-05-18T20:05:12.411Z,99994.81
2023-05-18T20:07:40.938Z,99991.59
2023-05-18T20:10:09.102Z,99992.66
2023-05-18T20:12:38.454Z,99990.28
2023-05-18T20:15:08.867Z,99999.84
2023-05-18T20:17:37.457Z,99990.72
2023-05-18T20:20:08.012Z,99997.69
2023-05-18T20:22:36.252Z,100000.34
2023-05-18T20:25:05.311Z,99996.13
2023-05-18T20:27:33.340Z,99999.72
2023-05-18T20:30:02.777Z,100001.59
2023-05-18T20:32:32.511Z,100004.25
2023-05-18T20:35:00.718Z,100002.59
2023-05-18T20:37:28.774Z,100005.28
2023-05-18T20:39:57.224Z,100007.84
2023-05-18T20:42:31.773Z,100003.63
2023-05-18T20:44:59.855Z,100007.13
2023-05-18T20:47:31.654Z,100013.09
2023-05-18T20:49:59.971Z,100012.25
2023-05-18T20:52:28.843Z,100008.97
2023-05-18T20:54:56.998Z,100003.84
2023-05-18T20:57:27.674Z,100015.75
2023-05-18T20:59:55.846Z,100016.69
2023-05-18T21:02:23.960Z,100026.03
2023-05-18T21:04:57.620Z,100009.09
2023-05-18T21:07:25.776Z,100015.94
2023-05-18T21:09:53.796Z,100021.06
2023-05-18T21:12:21.918Z,100021.06
2023-05-18T21:14:50.066Z,100015.13
2023-05-18T21:17:18.181Z,100015.94
2023-05-18T21:19:46.225Z,100019.47
2023-05-18T21:22:15.656Z,100018.63
2023-05-18T21:24:43.646Z,100020.38
2023-05-18T21:27:11.726Z,100017.81
2023-05-18T21:29:39.803Z,100016.16
2023-05-18T21:32:08.519Z,100019.63
2023-05-18T21:34:36.738Z,100019.63
2023-05-18T21:37:05.043Z,100020.47
2023-05-18T21:39:34.478Z,100008.56
2023-05-18T21:42:03.333Z,100018.03
2023-05-18T21:44:31.422Z,100012.88
2023-05-18T21:46:59.495Z,100012.88
2023-05-18T21:49:27.562Z,100011.94
2023-05-18T21:51:56.074Z,100017.19
2023-05-18T21:54:24.135Z,100023.97
2023-05-18T21:56:53.577Z,100031.75
2023-05-18T21:59:21.579Z,100027.44
2023-05-18T22:01:49.595Z,100030.84
2023-05-18T22:04:18.283Z,100030.84
2023-05-18T22:06:46.411Z,100024.88
2023-05-18T22:09:14.497Z,100022.31
2023-05-18T22:11:42.560Z,100028.28
2023-05-18T22:14:11.913Z,100023.97
2023-05-18T22:16:39.957Z,100029.19
2023-05-18T22:19:08.112Z,100020.66
2023-05-18T22:21:36.251Z,100030.13
2023-05-18T22:24:04.513Z,100036.16
2023-05-18T22:26:32.619Z,100021.59
2023-05-18T22:29:00.628Z,100021.72
2023-05-18T22:31:30.057Z,100019.16
2023-05-18T22:33:58.120Z,100020.88
2023-05-18T22:36:27.364Z,100027.75
2023-05-18T22:38:56.750Z,100025.19
2023-05-18T22:41:24.885Z,100024.34
2023-05-18T22:43:52.932Z,100021.06
2023-05-18T22:46:21.180Z,100021.06
2023-05-18T22:48:50.558Z,100020.22
2023-05-18T22:51:18.657Z,100019.44
2023-05-18T22:53:46.748Z,100022.91
2023-05-18T22:56:18.445Z,100023.84
2023-05-18T22:58:46.746Z,100023.00
2023-05-18T23:01:14.810Z,100018.78
2023-05-18T23:03:42.811Z,100021.47
2023-05-18T23:06:12.192Z,100019.84
2023-05-18T23:08:40.291Z,100013.88
2023-05-18T23:11:08.290Z,100010.59
2023-05-18T23:13:37.493Z,100016.66
2023-05-18T23:16:10.183Z,100010.72
2023-05-18T23:18:38.652Z,100014.19
2023-05-18T23:21:08.840Z,100011.72
2023-05-18T23:23:38.220Z,100008.41
2023-05-18T23:26:06.393Z,100007.59
2023-05-18T23:28:34.485Z,100006.06
2023-05-18T23:31:02.591Z,100009.53
2023-05-18T23:33:31.392Z,100013.03
2023-05-18T23:36:03.796Z,100008.09
2023-05-18T23:38:37.545Z,100008.09
2023-05-18T23:41:08.396Z,100007.38
2023-05-18T23:43:37.475Z,100003.19
2023-05-18T23:46:06.647Z,100005.84
2023-05-18T23:48:35.827Z,100006.66
2023-05-18T23:51:04.905Z,100005.09
2023-05-18T23:53:34.139Z,100006.84
2023-05-18T23:56:03.691Z,100005.22
2023-05-18T23:58:33.853Z,99997.72
